sensor_id;sensor_type;location;lat;lon;timestamp;P1;durP1;ratioP1;P2;durP2;ratioP2
23148;SDS011;11743;51.228;22.498;2022-09-03T00:00:17;8.00;;;3.45;;
23148;SDS011;11743;51.228;22.498;2022-09-03T00:00:41;9.00;;;3.72;;
23148;SDS011;11743;51.228;22.498;2022-09-03T00:01:13;9.38;;;3.58;;
23148;SDS011;11743;51.228;22.498;2022-09-03T00:01:41;6.25;;;3.60;;
23148;SDS011;11743;51.228;22.498;2022-09-03T00:03:16;6.43;;;3.42;;
23148;SDS011;11743;51.228;22.498;2022-09-03T00:03:44;9.45;;;3.83;;
23148;SDS011;11743;51.228;22.498;2022-09-03T00:04:15;7.68;;;3.55;;
23148;SDS011;11743;51.228;22.498;2022-09-03T00:04:50;10.32;;;3.60;;
23148;SDS011;11743;51.228;22.498;2022-09-03T00:05:38;7.22;;;3.53;;
23148;SDS011;11743;51.228;22.498;2022-09-03T00:06:09;9.68;;;3.67;;
23148;SDS011;11743;51.228;22.498;2022-09-03T00:06:44;7.35;;;3.60;;
23148;SDS011;11743;51.228;22.498;2022-09-03T00:07:16;6.32;;;3.30;;
23148;SDS011;11743;51.228;22.498;2022-09-03T00:09:15;6.43;;;3.60;;
23148;SDS011;11743;51.228;22.498;2022-09-03T00:09:46;7.63;;;3.55;;
23148;SDS011;11743;51.228;22.498;2022-09-03T00:10:23;7.13;;;3.35;;
23148;SDS011;11743;51.228;22.498;2022-09-03T00:11:04;6.47;;;3.70;;
23148;SDS011;11743;51.228;22.498;2022-09-03T00:11:45;7.35;;;3.25;;
23148;SDS011;11743;51.228;22.498;2022-09-03T00:12:13;6.65;;;3.40;;
23148;SDS011;11743;51.228;22.498;2022-09-03T00:12:41;10.50;;;3.50;;
23148;SDS011;11743;51.228;22.498;2022-09-03T00:13:05;9.45;;;3.47;;
23148;SDS011;11743;51.228;22.498;2022-09-03T00:13:53;6.65;;;3.40;;
23148;SDS011;11743;51.228;22.498;2022-09-03T00:14:22;7.97;;;3.30;;
23148;SDS011;11743;51.228;22.498;2022-09-03T00:15:02;9.57;;;3.78;;
23148;SDS011;11743;51.228;22.498;2022-09-03T00:15:26;7.03;;;3.50;;
23148;SDS011;11743;51.228;22.498;2022-09-03T00:15:50;5.57;;;3.35;;
23148;SDS011;11743;51.228;22.498;2022-09-03T00:16:15;6.25;;;3.42;;
23148;SDS011;11743;51.228;22.498;2022-09-03T00:16:44;5.15;;;3.30;;
23148;SDS011;11743;51.228;22.498;2022-09-03T00:17:35;7.00;;;3.40;;
23148;SDS011;11743;51.228;22.498;2022-09-03T00:18:03;7.65;;;3.60;;
23148;SDS011;11743;51.228;22.498;2022-09-03T00:18:33;7.13;;;3.35;;
23148;SDS011;11743;51.228;22.498;2022-09-03T00:19:03;6.65;;;3.08;;
23148;SDS011;11743;51.228;22.498;2022-09-03T00:19:28;6.47;;;3.30;;
23148;SDS011;11743;51.228;22.498;2022-09-03T00:20:48;7.55;;;3.67;;
23148;SDS011;11743;51.228;22.498;2022-09-03T00:21:43;7.55;;;3.30;;
23148;SDS011;11743;51.228;22.498;2022-09-03T00:22:07;7.05;;;3.60;;
23148;SDS011;11743;51.228;22.498;2022-09-03T00:22:35;6.65;;;3.33;;
23148;SDS011;11743;51.228;22.498;2022-09-03T00:23:02;9.00;;;3.38;;
23148;SDS011;11743;51.228;22.498;2022-09-03T00:23:27;7.72;;;3.33;;
23148;SDS011;11743;51.228;22.498;2022-09-03T00:23:51;5.63;;;3.10;;
23148;SDS011;11743;51.228;22.498;2022-09-03T00:24:15;6.68;;;3.35;;
23148;SDS011;11743;51.228;22.498;2022-09-03T00:24:41;8.15;;;3.58;;
23148;SDS011;11743;51.228;22.498;2022-09-03T00:25:06;7.28;;;3.80;;
23148;SDS011;11743;51.228;22.498;2022-09-03T00:25:37;7.18;;;3.55;;
23148;SDS011;11743;51.228;22.498;2022-09-03T00:26:34;7.90;;;4.05;;
23148;SDS011;11743;51.228;22.498;2022-09-03T00:26:59;6.43;;;3.58;;
23148;SDS011;11743;51.228;22.498;2022-09-03T00:27:24;10.07;;;3.70;;
23148;SDS011;11743;51.228;22.498;2022-09-03T00:27:49;6.38;;;3.10;;
23148;SDS011;11743;51.228;22.498;2022-09-03T00:28:16;6.70;;;3.40;;
23148;SDS011;11743;51.228;22.498;2022-09-03T00:28:45;9.13;;;3.42;;
23148;SDS011;11743;51.228;22.498;2022-09-03T00:29:16;7.88;;;3.40;;
23148;SDS011;11743;51.228;22.498;2022-09-03T00:29:48;7.93;;;3.78;;
23148;SDS011;11743;51.228;22.498;2022-09-03T00:30:21;6.30;;;3.53;;
23148;SDS011;11743;51.228;22.498;2022-09-03T00:30:45;5.95;;;3.65;;
23148;SDS011;11743;51.228;22.498;2022-09-03T00:31:40;8.38;;;3.65;;
23148;SDS011;11743;51.228;22.498;2022-09-03T00:32:15;7.40;;;3.55;;
23148;SDS011;11743;51.228;22.498;2022-09-03T00:33:29;7.57;;;3.83;;
23148;SDS011;11743;51.228;22.498;2022-09-03T00:33:55;6.95;;;3.70;;
23148;SDS011;11743;51.228;22.498;2022-09-03T00:34:33;8.57;;;3.58;;
23148;SDS011;11743;51.228;22.498;2022-09-03T00:35:01;9.05;;;3.75;;
23148;SDS011;11743;51.228;22.498;2022-09-03T00:35:26;7.00;;;3.20;;
23148;SDS011;11743;51.228;22.498;2022-09-03T00:36:01;7.95;;;3.50;;
23148;SDS011;11743;51.228;22.498;2022-09-03T00:37:06;7.38;;;3.40;;
23148;SDS011;11743;51.228;22.498;2022-09-03T00:37:34;7.72;;;3.63;;
23148;SDS011;11743;51.228;22.498;2022-09-03T00:37:58;6.38;;;3.20;;
23148;SDS011;11743;51.228;22.498;2022-09-03T00:38:20;7.65;;;3.53;;
23148;SDS011;11743;51.228;22.498;2022-09-03T00:38:46;9.27;;;3.85;;
23148;SDS011;11743;51.228;22.498;2022-09-03T00:39:11;7.32;;;3.78;;
23148;SDS011;11743;51.228;22.498;2022-09-03T00:39:36;7.18;;;3.47;;
23148;SDS011;11743;51.228;22.498;2022-09-03T00:39:58;7.53;;;3.22;;
23148;SDS011;11743;51.228;22.498;2022-09-03T00:42:46;9.90;;;3.72;;
23148;SDS011;11743;51.228;22.498;2022-09-03T00:43:30;9.43;;;3.70;;
23148;SDS011;11743;51.228;22.498;2022-09-03T00:45:51;8.20;;;3.63;;
23148;SDS011;11743;51.228;22.498;2022-09-03T00:46:59;8.80;;;3.47;;
23148;SDS011;11743;51.228;22.498;2022-09-03T00:48:09;8.05;;;3.35;;
23148;SDS011;11743;51.228;22.498;2022-09-03T00:49:23;7.80;;;3.50;;
23148;SDS011;11743;51.228;22.498;2022-09-03T00:51:36;6.32;;;3.67;;
23148;SDS011;11743;51.228;22.498;2022-09-03T00:52:47;7.65;;;3.53;;
23148;SDS011;11743;51.228;22.498;2022-09-03T00:56:58;8.48;;;3.35;;
23148;SDS011;11743;51.228;22.498;2022-09-03T00:58:07;6.90;;;3.50;;
23148;SDS011;11743;51.228;22.498;2022-09-03T01:00:19;7.80;;;3.40;;
23148;SDS011;11743;51.228;22.498;2022-09-03T01:00:41;6.47;;;3.15;;
23148;SDS011;11743;51.228;22.498;2022-09-03T01:01:20;9.05;;;3.47;;
23148;SDS011;11743;51.228;22.498;2022-09-03T01:01:56;5.45;;;3.28;;
23148;SDS011;11743;51.228;22.498;2022-09-03T01:03:47;9.60;;;3.70;;
23148;SDS011;11743;51.228;22.498;2022-09-03T01:05:41;5.75;;;3.10;;
23148;SDS011;11743;51.228;22.498;2022-09-03T01:06:23;5.47;;;3.00;;
23148;SDS011;11743;51.228;22.498;2022-09-03T01:07:31;7.00;;;3.42;;
23148;SDS011;11743;51.228;22.498;2022-09-03T01:14:51;13.63;;;3.70;;
23148;SDS011;11743;51.228;22.498;2022-09-03T01:17:49;5.53;;;3.38;;
23148;SDS011;11743;51.228;22.498;2022-09-03T01:18:42;5.90;;;3.65;;
23148;SDS011;11743;51.228;22.498;2022-09-03T01:20:26;5.70;;;2.90;;
23148;SDS011;11743;51.228;22.498;2022-09-03T01:26:53;5.57;;;3.00;;
23148;SDS011;11743;51.228;22.498;2022-09-03T01:30:20;6.68;;;3.35;;
23148;SDS011;11743;51.228;22.498;2022-09-03T01:30:44;6.25;;;3.33;;
23148;SDS011;11743;51.228;22.498;2022-09-03T01:31:20;6.32;;;3.22;;
23148;SDS011;11743;51.228;22.498;2022-09-03T01:32:08;6.00;;;3.00;;
23148;SDS011;11743;51.228;22.498;2022-09-03T01:38:26;6.03;;;2.78;;
23148;SDS011;11743;51.228;22.498;2022-09-03T01:39:20;5.22;;;3.20;;
23148;SDS011;11743;51.228;22.498;2022-09-03T01:39:50;7.15;;;3.22;;
23148;SDS011;11743;51.228;22.498;2022-09-03T01:46:12;5.28;;;3.03;;
23148;SDS011;11743;51.228;22.498;2022-09-03T01:46:43;4.18;;;2.80;;
23148;SDS011;11743;51.228;22.498;2022-09-03T01:49:55;6.28;;;2.88;;
23148;SDS011;11743;51.228;22.498;2022-09-03T01:51:01;5.10;;;2.80;;
23148;SDS011;11743;51.228;22.498;2022-09-03T01:51:35;7.63;;;3.07;;
23148;SDS011;11743;51.228;22.498;2022-09-03T01:52:11;6.05;;;2.70;;
23148;SDS011;11743;51.228;22.498;2022-09-03T01:52:58;5.55;;;2.85;;
23148;SDS011;11743;51.228;22.498;2022-09-03T01:54:29;7.35;;;2.90;;
23148;SDS011;11743;51.228;22.498;2022-09-03T01:58:51;6.90;;;2.97;;
23148;SDS011;11743;51.228;22.498;2022-09-03T01:59:25;5.13;;;2.67;;
23148;SDS011;11743;51.228;22.498;2022-09-03T01:59:58;5.00;;;2.70;;
23148;SDS011;11743;51.228;22.498;2022-09-03T02:00:22;4.55;;;2.80;;
23148;SDS011;11743;51.228;22.498;2022-09-03T02:00:48;6.63;;;2.88;;
23148;SDS011;11743;51.228;22.498;2022-09-03T02:01:21;6.85;;;2.60;;
23148;SDS011;11743;51.228;22.498;2022-09-03T02:01:58;5.93;;;3.00;;
23148;SDS011;11743;51.228;22.498;2022-09-03T02:02:28;5.95;;;2.65;;
23148;SDS011;11743;51.228;22.498;2022-09-03T02:21:07;6.70;;;3.25;;
23148;SDS011;11743;51.228;22.498;2022-09-03T02:21:32;6.65;;;2.90;;
23148;SDS011;11743;51.228;22.498;2022-09-03T02:21:57;4.95;;;2.92;;
23148;SDS011;11743;51.228;22.498;2022-09-03T02:22:20;6.88;;;2.60;;
23148;SDS011;11743;51.228;22.498;2022-09-03T02:22:42;6.05;;;2.83;;
23148;SDS011;11743;51.228;22.498;2022-09-03T02:23:04;4.57;;;2.80;;
23148;SDS011;11743;51.228;22.498;2022-09-03T02:23:26;4.78;;;2.78;;
23148;SDS011;11743;51.228;22.498;2022-09-03T02:23:52;6.35;;;3.17;;
23148;SDS011;11743;51.228;22.498;2022-09-03T02:24:14;6.22;;;3.10;;
23148;SDS011;11743;51.228;22.498;2022-09-03T02:24:37;6.40;;;3.00;;
23148;SDS011;11743;51.228;22.498;2022-09-03T02:24:59;6.85;;;3.20;;
23148;SDS011;11743;51.228;22.498;2022-09-03T02:25:22;7.32;;;3.00;;
23148;SDS011;11743;51.228;22.498;2022-09-03T02:25:56;5.95;;;2.88;;
23148;SDS011;11743;51.228;22.498;2022-09-03T02:26:21;6.72;;;2.90;;
23148;SDS011;11743;51.228;22.498;2022-09-03T02:26:45;6.93;;;2.83;;
23148;SDS011;11743;51.228;22.498;2022-09-03T02:27:07;6.53;;;3.03;;
23148;SDS011;11743;51.228;22.498;2022-09-03T02:27:30;5.38;;;2.80;;
23148;SDS011;11743;51.228;22.498;2022-09-03T02:27:53;4.90;;;2.50;;
23148;SDS011;11743;51.228;22.498;2022-09-03T02:28:15;5.05;;;2.72;;
23148;SDS011;11743;51.228;22.498;2022-09-03T02:28:38;5.82;;;3.20;;
23148;SDS011;11743;51.228;22.498;2022-09-03T02:29:00;5.20;;;3.00;;
23148;SDS011;11743;51.228;22.498;2022-09-03T02:29:23;7.20;;;3.17;;
23148;SDS011;11743;51.228;22.498;2022-09-03T02:29:47;8.07;;;3.30;;
23148;SDS011;11743;51.228;22.498;2022-09-03T02:30:10;5.75;;;3.00;;
23148;SDS011;11743;51.228;22.498;2022-09-03T02:30:32;6.97;;;3.00;;
23148;SDS011;11743;51.228;22.498;2022-09-03T02:30:55;6.22;;;3.10;;
23148;SDS011;11743;51.228;22.498;2022-09-03T02:31:18;6.40;;;2.70;;
23148;SDS011;11743;51.228;22.498;2022-09-03T02:31:40;6.05;;;2.90;;
23148;SDS011;11743;51.228;22.498;2022-09-03T02:32:05;8.07;;;3.13;;
23148;SDS011;11743;51.228;22.498;2022-09-03T02:32:27;8.63;;;3.10;;
23148;SDS011;11743;51.228;22.498;2022-09-03T02:32:49;7.30;;;3.10;;
23148;SDS011;11743;51.228;22.498;2022-09-03T02:33:11;6.00;;;2.92;;
23148;SDS011;11743;51.228;22.498;2022-09-03T02:33:36;6.13;;;3.13;;
23148;SDS011;11743;51.228;22.498;2022-09-03T02:34:00;6.07;;;2.85;;
23148;SDS011;11743;51.228;22.498;2022-09-03T02:34:23;5.75;;;2.90;;
23148;SDS011;11743;51.228;22.498;2022-09-03T02:34:45;4.47;;;2.80;;
23148;SDS011;11743;51.228;22.498;2022-09-03T02:35:07;6.50;;;3.08;;
23148;SDS011;11743;51.228;22.498;2022-09-03T02:35:31;9.23;;;3.30;;
23148;SDS011;11743;51.228;22.498;2022-09-03T02:35:54;7.57;;;3.10;;
23148;SDS011;11743;51.228;22.498;2022-09-03T02:36:17;7.15;;;3.00;;
23148;SDS011;11743;51.228;22.498;2022-09-03T02:36:43;6.97;;;3.00;;
23148;SDS011;11743;51.228;22.498;2022-09-03T02:37:13;5.35;;;2.90;;
23148;SDS011;11743;51.228;22.498;2022-09-03T02:37:36;8.63;;;3.10;;
23148;SDS011;11743;51.228;22.498;2022-09-03T02:38:19;6.38;;;3.17;;
23148;SDS011;11743;51.228;22.498;2022-09-03T02:38:48;6.18;;;3.08;;
23148;SDS011;11743;51.228;22.498;2022-09-03T02:39:11;5.28;;;3.03;;
23148;SDS011;11743;51.228;22.498;2022-09-03T02:39:35;5.00;;;2.92;;
23148;SDS011;11743;51.228;22.498;2022-09-03T02:39:59;6.43;;;3.00;;
23148;SDS011;11743;51.228;22.498;2022-09-03T02:40:22;5.57;;;2.78;;
23148;SDS011;11743;51.228;22.498;2022-09-03T02:40:44;8.90;;;2.95;;
23148;SDS011;11743;51.228;22.498;2022-09-03T02:41:06;6.22;;;3.10;;
23148;SDS011;11743;51.228;22.498;2022-09-03T02:41:28;6.65;;;3.13;;
23148;SDS011;11743;51.228;22.498;2022-09-03T02:41:50;5.68;;;2.92;;
23148;SDS011;11743;51.228;22.498;2022-09-03T02:42:18;7.00;;;3.15;;
23148;SDS011;11743;51.228;22.498;2022-09-03T02:42:40;7.03;;;3.20;;
23148;SDS011;11743;51.228;22.498;2022-09-03T02:43:02;7.20;;;3.03;;
23148;SDS011;11743;51.228;22.498;2022-09-03T02:43:36;6.60;;;3.17;;
23148;SDS011;11743;51.228;22.498;2022-09-03T02:44:05;6.72;;;3.30;;
23148;SDS011;11743;51.228;22.498;2022-09-03T02:44:49;8.32;;;3.15;;
23148;SDS011;11743;51.228;22.498;2022-09-03T02:45:27;5.82;;;3.00;;
23148;SDS011;11743;51.228;22.498;2022-09-03T02:45:53;7.60;;;3.00;;
23148;SDS011;11743;51.228;22.498;2022-09-03T02:46:21;7.20;;;3.15;;
23148;SDS011;11743;51.228;22.498;2022-09-03T02:46:51;6.50;;;3.10;;
23148;SDS011;11743;51.228;22.498;2022-09-03T02:47:21;6.30;;;3.17;;
23148;SDS011;11743;51.228;22.498;2022-09-03T02:47:51;6.18;;;2.97;;
23148;SDS011;11743;51.228;22.498;2022-09-03T02:53:18;6.95;;;2.92;;
23148;SDS011;11743;51.228;22.498;2022-09-03T02:53:42;6.63;;;3.00;;
23148;SDS011;11743;51.228;22.498;2022-09-03T02:54:07;7.40;;;3.28;;
23148;SDS011;11743;51.228;22.498;2022-09-03T02:54:39;6.38;;;2.65;;
23148;SDS011;11743;51.228;22.498;2022-09-03T02:55:01;6.13;;;3.00;;
23148;SDS011;11743;51.228;22.498;2022-09-03T02:55:23;6.95;;;3.15;;
23148;SDS011;11743;51.228;22.498;2022-09-03T02:55:45;6.10;;;3.10;;
23148;SDS011;11743;51.228;22.498;2022-09-03T02:56:07;7.35;;;3.47;;
23148;SDS011;11743;51.228;22.498;2022-09-03T02:56:29;8.05;;;3.60;;
23148;SDS011;11743;51.228;22.498;2022-09-03T02:56:51;5.57;;;3.20;;
23148;SDS011;11743;51.228;22.498;2022-09-03T02:57:14;6.70;;;3.35;;
23148;SDS011;11743;51.228;22.498;2022-09-03T02:57:46;7.57;;;3.40;;
23148;SDS011;11743;51.228;22.498;2022-09-03T02:58:11;5.63;;;2.90;;
23148;SDS011;11743;51.228;22.498;2022-09-03T02:58:33;6.32;;;3.20;;
23148;SDS011;11743;51.228;22.498;2022-09-03T02:58:55;8.55;;;3.33;;
23148;SDS011;11743;51.228;22.498;2022-09-03T02:59:17;7.40;;;3.00;;
23148;SDS011;11743;51.228;22.498;2022-09-03T02:59:40;6.10;;;3.28;;
23148;SDS011;11743;51.228;22.498;2022-09-03T03:00:07;7.45;;;3.47;;
23148;SDS011;11743;51.228;22.498;2022-09-03T03:00:30;6.57;;;3.20;;
23148;SDS011;11743;51.228;22.498;2022-09-03T03:00:53;6.20;;;3.00;;
23148;SDS011;11743;51.228;22.498;2022-09-03T03:01:15;7.50;;;3.05;;
23148;SDS011;11743;51.228;22.498;2022-09-03T03:01:44;6.72;;;3.25;;
23148;SDS011;11743;51.228;22.498;2022-09-03T03:02:06;6.97;;;3.03;;
23148;SDS011;11743;51.228;22.498;2022-09-03T03:02:29;7.38;;;3.08;;
23148;SDS011;11743;51.228;22.498;2022-09-03T03:02:51;5.82;;;3.10;;
23148;SDS011;11743;51.228;22.498;2022-09-03T03:03:13;7.40;;;3.30;;
23148;SDS011;11743;51.228;22.498;2022-09-03T03:03:35;6.40;;;2.97;;
23148;SDS011;11743;51.228;22.498;2022-09-03T03:03:57;5.22;;;2.90;;
23148;SDS011;11743;51.228;22.498;2022-09-03T03:04:23;7.18;;;3.10;;
23148;SDS011;11743;51.228;22.498;2022-09-03T03:04:45;7.00;;;3.10;;
23148;SDS011;11743;51.228;22.498;2022-09-03T03:05:07;5.80;;;3.15;;
23148;SDS011;11743;51.228;22.498;2022-09-03T03:06:10;6.53;;;3.25;;
23148;SDS011;11743;51.228;22.498;2022-09-03T03:06:28;6.22;;;3.30;;
23148;SDS011;11743;51.228;22.498;2022-09-03T03:06:50;7.45;;;3.58;;
23148;SDS011;11743;51.228;22.498;2022-09-03T03:07:12;5.93;;;3.10;;
23148;SDS011;11743;51.228;22.498;2022-09-03T03:07:36;6.20;;;3.08;;
23148;SDS011;11743;51.228;22.498;2022-09-03T03:07:59;5.97;;;3.10;;
23148;SDS011;11743;51.228;22.498;2022-09-03T03:08:22;6.90;;;3.22;;
23148;SDS011;11743;51.228;22.498;2022-09-03T03:08:48;6.80;;;3.28;;
23148;SDS011;11743;51.228;22.498;2022-09-03T03:09:11;8.02;;;3.15;;
23148;SDS011;11743;51.228;22.498;2022-09-03T03:09:33;7.43;;;3.13;;
23148;SDS011;11743;51.228;22.498;2022-09-03T03:09:54;5.00;;;2.83;;
23148;SDS011;11743;51.228;22.498;2022-09-03T03:10:16;5.22;;;2.90;;
23148;SDS011;11743;51.228;22.498;2022-09-03T03:10:42;4.57;;;2.70;;
23148;SDS011;11743;51.228;22.498;2022-09-03T03:11:05;7.57;;;3.50;;
23148;SDS011;11743;51.228;22.498;2022-09-03T03:11:27;7.13;;;3.20;;
23148;SDS011;11743;51.228;22.498;2022-09-03T03:11:51;6.00;;;3.20;;
23148;SDS011;11743;51.228;22.498;2022-09-03T03:12:15;6.60;;;3.30;;
23148;SDS011;11743;51.228;22.498;2022-09-03T03:12:37;7.88;;;3.50;;
23148;SDS011;11743;51.228;22.498;2022-09-03T03:13:00;6.30;;;3.03;;
23148;SDS011;11743;51.228;22.498;2022-09-03T03:13:25;7.45;;;3.20;;
23148;SDS011;11743;51.228;22.498;2022-09-03T03:13:47;7.53;;;3.38;;
23148;SDS011;11743;51.228;22.498;2022-09-03T03:14:09;7.95;;;3.10;;
23148;SDS011;11743;51.228;22.498;2022-09-03T03:14:31;7.32;;;3.22;;
23148;SDS011;11743;51.228;22.498;2022-09-03T03:14:53;7.22;;;3.10;;
23148;SDS011;11743;51.228;22.498;2022-09-03T03:15:15;5.60;;;3.20;;
23148;SDS011;11743;51.228;22.498;2022-09-03T03:15:37;6.22;;;3.20;;
23148;SDS011;11743;51.228;22.498;2022-09-03T03:16:00;6.22;;;3.15;;
23148;SDS011;11743;51.228;22.498;2022-09-03T03:16:24;7.20;;;3.13;;
23148;SDS011;11743;51.228;22.498;2022-09-03T03:16:45;6.55;;;3.15;;
23148;SDS011;11743;51.228;22.498;2022-09-03T03:17:07;8.00;;;3.40;;
23148;SDS011;11743;51.228;22.498;2022-09-03T03:17:30;8.70;;;3.20;;
23148;SDS011;11743;51.228;22.498;2022-09-03T03:17:57;8.55;;;3.38;;
23148;SDS011;11743;51.228;22.498;2022-09-03T03:18:18;6.05;;;3.20;;
23148;SDS011;11743;51.228;22.498;2022-09-03T03:18:40;8.40;;;3.38;;
23148;SDS011;11743;51.228;22.498;2022-09-03T03:19:03;6.75;;;3.35;;
23148;SDS011;11743;51.228;22.498;2022-09-03T03:19:25;4.95;;;2.92;;
23148;SDS011;11743;51.228;22.498;2022-09-03T03:19:47;5.32;;;2.90;;
23148;SDS011;11743;51.228;22.498;2022-09-03T03:20:09;6.88;;;3.08;;
23148;SDS011;11743;51.228;22.498;2022-09-03T03:20:31;5.97;;;3.00;;
23148;SDS011;11743;51.228;22.498;2022-09-03T03:20:54;6.20;;;3.25;;
23148;SDS011;11743;51.228;22.498;2022-09-03T03:21:16;8.23;;;3.60;;
23148;SDS011;11743;51.228;22.498;2022-09-03T03:21:39;6.95;;;3.17;;
23148;SDS011;11743;51.228;22.498;2022-09-03T03:22:01;6.63;;;3.38;;
23148;SDS011;11743;51.228;22.498;2022-09-03T03:22:23;6.10;;;3.13;;
23148;SDS011;11743;51.228;22.498;2022-09-03T03:22:45;7.10;;;3.30;;
23148;SDS011;11743;51.228;22.498;2022-09-03T03:23:07;7.10;;;3.35;;
23148;SDS011;11743;51.228;22.498;2022-09-03T03:23:33;6.45;;;3.03;;
23148;SDS011;11743;51.228;22.498;2022-09-03T03:23:57;5.40;;;3.30;;
23148;SDS011;11743;51.228;22.498;2022-09-03T03:24:21;5.28;;;3.28;;
23148;SDS011;11743;51.228;22.498;2022-09-03T03:24:43;6.70;;;3.67;;
23148;SDS011;11743;51.228;22.498;2022-09-03T03:25:05;5.78;;;3.40;;
23148;SDS011;11743;51.228;22.498;2022-09-03T03:25:27;5.60;;;3.28;;
23148;SDS011;11743;51.228;22.498;2022-09-03T03:25:49;6.32;;;3.25;;
23148;SDS011;11743;51.228;22.498;2022-09-03T03:26:15;4.75;;;3.10;;
23148;SDS011;11743;51.228;22.498;2022-09-03T03:26:38;5.75;;;3.17;;
23148;SDS011;11743;51.228;22.498;2022-09-03T03:27:01;8.48;;;3.50;;
23148;SDS011;11743;51.228;22.498;2022-09-03T03:27:27;6.82;;;3.08;;
23148;SDS011;11743;51.228;22.498;2022-09-03T03:27:49;6.07;;;3.60;;
23148;SDS011;11743;51.228;22.498;2022-09-03T03:28:11;7.05;;;3.60;;
23148;SDS011;11743;51.228;22.498;2022-09-03T03:28:34;6.63;;;3.30;;
23148;SDS011;11743;51.228;22.498;2022-09-03T03:28:59;6.28;;;3.20;;
23148;SDS011;11743;51.228;22.498;2022-09-03T03:29:27;6.25;;;3.40;;
23148;SDS011;11743;51.228;22.498;2022-09-03T03:29:50;7.43;;;3.45;;
23148;SDS011;11743;51.228;22.498;2022-09-03T03:30:12;6.25;;;3.10;;
23148;SDS011;11743;51.228;22.498;2022-09-03T03:30:37;5.82;;;3.20;;
23148;SDS011;11743;51.228;22.498;2022-09-03T03:31:16;7.07;;;3.58;;
23148;SDS011;11743;51.228;22.498;2022-09-03T03:31:40;9.63;;;3.30;;
23148;SDS011;11743;51.228;22.498;2022-09-03T03:32:05;6.20;;;3.35;;
23148;SDS011;11743;51.228;22.498;2022-09-03T03:32:27;6.80;;;3.47;;
23148;SDS011;11743;51.228;22.498;2022-09-03T03:32:51;8.07;;;3.25;;
23148;SDS011;11743;51.228;22.498;2022-09-03T03:33:14;8.82;;;3.53;;
23148;SDS011;11743;51.228;22.498;2022-09-03T03:33:36;7.03;;;3.50;;
23148;SDS011;11743;51.228;22.498;2022-09-03T03:34:00;6.40;;;3.38;;
23148;SDS011;11743;51.228;22.498;2022-09-03T03:34:23;5.97;;;3.22;;
23148;SDS011;11743;51.228;22.498;2022-09-03T03:34:45;7.20;;;3.28;;
23148;SDS011;11743;51.228;22.498;2022-09-03T03:35:07;9.20;;;3.70;;
23148;SDS011;11743;51.228;22.498;2022-09-03T03:35:29;9.18;;;3.88;;
23148;SDS011;11743;51.228;22.498;2022-09-03T03:35:51;6.63;;;3.28;;
23148;SDS011;11743;51.228;22.498;2022-09-03T03:36:14;6.30;;;3.33;;
23148;SDS011;11743;51.228;22.498;2022-09-03T03:36:36;7.05;;;3.78;;
23148;SDS011;11743;51.228;22.498;2022-09-03T03:36:58;6.38;;;3.28;;
23148;SDS011;11743;51.228;22.498;2022-09-03T03:37:20;6.72;;;3.40;;
23148;SDS011;11743;51.228;22.498;2022-09-03T03:37:42;7.80;;;3.33;;
23148;SDS011;11743;51.228;22.498;2022-09-03T03:38:04;6.32;;;3.35;;
23148;SDS011;11743;51.228;22.498;2022-09-03T03:38:26;6.65;;;3.50;;
23148;SDS011;11743;51.228;22.498;2022-09-03T03:38:48;8.10;;;3.40;;
23148;SDS011;11743;51.228;22.498;2022-09-03T03:39:10;7.82;;;3.42;;
23148;SDS011;11743;51.228;22.498;2022-09-03T03:39:32;7.18;;;3.42;;
23148;SDS011;11743;51.228;22.498;2022-09-03T03:39:54;8.38;;;3.47;;
23148;SDS011;11743;51.228;22.498;2022-09-03T03:40:28;8.38;;;3.53;;
23148;SDS011;11743;51.228;22.498;2022-09-03T03:40:50;6.75;;;3.42;;
23148;SDS011;11743;51.228;22.498;2022-09-03T03:41:13;5.72;;;3.38;;
23148;SDS011;11743;51.228;22.498;2022-09-03T03:41:35;6.13;;;3.17;;
23148;SDS011;11743;51.228;22.498;2022-09-03T03:41:58;6.45;;;3.50;;
23148;SDS011;11743;51.228;22.498;2022-09-03T03:42:21;7.25;;;3.40;;
23148;SDS011;11743;51.228;22.498;2022-09-03T03:42:46;6.55;;;3.58;;
23148;SDS011;11743;51.228;22.498;2022-09-03T03:43:08;9.20;;;3.50;;
23148;SDS011;11743;51.228;22.498;2022-09-03T03:43:30;6.18;;;3.10;;
23148;SDS011;11743;51.228;22.498;2022-09-03T03:43:55;9.32;;;3.38;;
23148;SDS011;11743;51.228;22.498;2022-09-03T03:44:18;7.32;;;3.50;;
23148;SDS011;11743;51.228;22.498;2022-09-03T03:44:43;9.82;;;3.85;;
23148;SDS011;11743;51.228;22.498;2022-09-03T03:45:05;9.63;;;3.42;;
23148;SDS011;11743;51.228;22.498;2022-09-03T03:45:30;8.63;;;3.40;;
23148;SDS011;11743;51.228;22.498;2022-09-03T03:45:56;7.00;;;3.10;;
23148;SDS011;11743;51.228;22.498;2022-09-03T03:46:22;6.85;;;3.58;;
23148;SDS011;11743;51.228;22.498;2022-09-03T03:46:45;6.10;;;3.40;;
23148;SDS011;11743;51.228;22.498;2022-09-03T03:47:07;6.80;;;3.50;;
23148;SDS011;11743;51.228;22.498;2022-09-03T03:47:29;5.68;;;3.28;;
23148;SDS011;11743;51.228;22.498;2022-09-03T03:47:55;6.70;;;3.63;;
23148;SDS011;11743;51.228;22.498;2022-09-03T03:48:20;7.18;;;3.55;;
23148;SDS011;11743;51.228;22.498;2022-09-03T03:48:46;7.82;;;3.60;;
23148;SDS011;11743;51.228;22.498;2022-09-03T03:49:08;7.78;;;3.60;;
23148;SDS011;11743;51.228;22.498;2022-09-03T03:49:32;6.90;;;3.50;;
23148;SDS011;11743;51.228;22.498;2022-09-03T03:49:56;6.35;;;3.30;;
23148;SDS011;11743;51.228;22.498;2022-09-03T03:50:18;6.47;;;3.22;;
23148;SDS011;11743;51.228;22.498;2022-09-03T03:50:41;6.90;;;3.40;;
23148;SDS011;11743;51.228;22.498;2022-09-03T03:51:04;5.80;;;3.58;;
23148;SDS011;11743;51.228;22.498;2022-09-03T03:51:28;7.00;;;3.35;;
23148;SDS011;11743;51.228;22.498;2022-09-03T03:51:50;7.20;;;3.33;;
23148;SDS011;11743;51.228;22.498;2022-09-03T03:52:12;6.57;;;3.53;;
23148;SDS011;11743;51.228;22.498;2022-09-03T03:52:34;8.05;;;3.75;;
23148;SDS011;11743;51.228;22.498;2022-09-03T03:52:58;9.15;;;3.58;;
23148;SDS011;11743;51.228;22.498;2022-09-03T03:53:21;7.60;;;3.60;;
23148;SDS011;11743;51.228;22.498;2022-09-03T03:53:43;7.75;;;3.35;;
23148;SDS011;11743;51.228;22.498;2022-09-03T03:54:06;8.70;;;3.35;;
23148;SDS011;11743;51.228;22.498;2022-09-03T03:54:34;7.90;;;3.47;;
23148;SDS011;11743;51.228;22.498;2022-09-03T03:54:56;7.32;;;3.65;;
23148;SDS011;11743;51.228;22.498;2022-09-03T03:55:18;8.60;;;3.60;;
23148;SDS011;11743;51.228;22.498;2022-09-03T03:55:40;7.10;;;3.42;;
23148;SDS011;11743;51.228;22.498;2022-09-03T03:56:04;5.70;;;3.38;;
23148;SDS011;11743;51.228;22.498;2022-09-03T03:56:34;7.50;;;3.90;;
23148;SDS011;11743;51.228;22.498;2022-09-03T03:56:58;8.48;;;3.63;;
23148;SDS011;11743;51.228;22.498;2022-09-03T03:57:20;7.53;;;3.42;;
23148;SDS011;11743;51.228;22.498;2022-09-03T03:57:44;10.55;;;3.85;;
23148;SDS011;11743;51.228;22.498;2022-09-03T03:58:06;9.57;;;3.55;;
23148;SDS011;11743;51.228;22.498;2022-09-03T03:58:28;7.65;;;3.33;;
23148;SDS011;11743;51.228;22.498;2022-09-03T03:58:52;8.20;;;3.55;;
23148;SDS011;11743;51.228;22.498;2022-09-03T03:59:15;7.43;;;3.58;;
23148;SDS011;11743;51.228;22.498;2022-09-03T03:59:37;7.93;;;3.60;;
23148;SDS011;11743;51.228;22.498;2022-09-03T03:59:59;9.75;;;3.63;;
23148;SDS011;11743;51.228;22.498;2022-09-03T04:00:21;11.45;;;3.70;;
23148;SDS011;11743;51.228;22.498;2022-09-03T04:00:44;7.78;;;3.58;;
23148;SDS011;11743;51.228;22.498;2022-09-03T04:01:09;6.75;;;3.67;;
23148;SDS011;11743;51.228;22.498;2022-09-03T04:01:33;7.20;;;3.55;;
23148;SDS011;11743;51.228;22.498;2022-09-03T04:01:55;8.38;;;3.75;;